• Join FlightAware (Why Join?)
  • Login
  • US Flag 
01:35AM EDT


 

Airport Tracker/Info


-or-


 

Live Flight TrackerFlight Track Log ✈ DAL3784 ✈ 21-Apr-2013 ✈ KDTW - KATW

Flight Track Log - Related Links

Times and Time Zones

All times are in EDT time to prevent confusion due to time zone crossing. See the DAL3784 flight status page for this flight to view local times or setup timezone preferences in your user account.

Time Position Orientation Groundspeed Altitude Reporting Facility
EDT Latitude Longitude Course Direction KTS MPH feet Rate Location/Type
03:43PM 42.2014 -83.3611 344° North 168 193 1,400  Level Cleveland Center
03:44PM 42.1689 -83.4183 233° Southwest 212 244 4,200 2,520 Climbing Cleveland Center
03:45PM 42.1500 -83.5072 254° West 278 320 6,900 2,400 Climbing Cleveland Center
03:46PM 42.1731 -83.5756 294° West 275 316 8,700 1,860 Climbing Cleveland Center
03:47PM 42.5970 -83.3500 North  Level FlightAware Approximate
03:47PM 42.2100 -83.6808 295° West 287 330 10,400  Level Cleveland Center
03:48PM 42.6963 -83.3500 North  Level FlightAware Approximate
03:48PM 42.2725 -83.6869 356° North 313 360 11,900  Level Cleveland Center
03:49PM 42.7351 -83.4668 344° North  Level Estimated
03:49PM 42.3589 -83.6461 19° North 286 329 14,100  Level Cleveland Center
03:50PM 42.4392 -83.6078 19° North 307 353 15,700 1,740 Climbing Cleveland Center
03:51PM 42.5300 -83.5586 22° Northeast 328 377 17,600 1,500 Climbing Cleveland Center
03:52PM 42.6294 -83.5097 20° North 349 402 18,800 1,440 Climbing Cleveland Center
03:53PM 42.7306 -83.4608 20° North 369 425 20,500 1,620 Climbing Cleveland Center
03:54PM 42.8342 -83.4061 21° North 380 437 22,100 1,260 Climbing Cleveland Center
03:55PM 42.9394 -83.3653 16° North 387 445 23,100 960 Climbing Cleveland Center
03:56PM 43.0519 -83.3675 359° North 387 445 24,100 1,200 Climbing Cleveland Center
03:57PM 43.1528 -83.4178 340° North 379 436 25,600 900 Climbing Cleveland Center
03:58PM 43.2492 -83.4819 334° Northwest 379 436 26,000 180 Climbing Cleveland Center
03:59PM 43.3517 -83.5494 334° Northwest 390 449 26,000  Level Cleveland Center
04:01PM 43.5272 -83.7631 319° Northwest 400 460 26,000  Level Minneapolis Center
04:02PM 43.5644 -83.9058 290° West 396 456 26,000  Level Minneapolis Center
04:03PM 43.6089 -84.0783 290° West 399 459 26,000  Level Minneapolis Center
04:04PM 43.6439 -84.2219 289° West 398 458 26,000  Level Minneapolis Center
04:05PM 43.6803 -84.3686 289° West 403 464 26,000  Level Minneapolis Center
04:06PM 43.7144 -84.5150 288° West 402 463 26,000  Level Minneapolis Center
04:07PM 43.7367 -84.6644 282° West 401 461 26,000  Level Minneapolis Center
04:09PM 43.7589 -84.8133 282° West 399 459 26,000  Level Minneapolis Center
04:10PM 43.7867 -84.9922 282° West 399 459 26,000  Level Minneapolis Center
04:11PM 43.8136 -85.1686 282° West 394 453 26,000  Level Minneapolis Center
04:12PM 43.8353 -85.3164 282° West 394 453 26,000  Level Minneapolis Center
04:13PM 43.8572 -85.4664 282° West 397 457 26,000  Level Minneapolis Center
04:14PM 43.8789 -85.6139 282° West 396 456 26,000 -120 Level Minneapolis Center
04:15PM 43.9006 -85.7622 282° West 394 453 25,800 -360 Descending Minneapolis Center
04:16PM 43.9219 -85.9153 281° West 402 463 25,300 -540 Descending Minneapolis Center
04:17PM 43.9492 -86.0997 282° West 408 470 24,700 -540 Descending Minneapolis Center
04:18PM 43.9708 -86.2542 281° West 410 472 24,200 -540 Descending Minneapolis Center
04:19PM 43.9922 -86.4089 281° West 410 472 23,700 -720 Descending Minneapolis Center
04:20PM 44.0128 -86.5642 280° West 411 473 22,800 -1,140 Descending Minneapolis Center
04:21PM 44.0336 -86.7169 281° West 407 468 21,400 -1,260 Descending Minneapolis Center
04:22PM 44.0542 -86.8639 281° West 394 453 20,300 -1,020 Descending Minneapolis Center
04:23PM 44.0728 -87.0061 280° West 380 437 19,300 -1,200 Descending Minneapolis Center
04:24PM 44.0950 -87.1719 281° West 368 423 17,900 -960 Descending Minneapolis Center
04:25PM 44.1103 -87.2989 280° West 367 422 17,400 -840 Descending Minneapolis Center
04:26PM 44.1300 -87.4564 280° West 357 411 16,200 -1,140 Descending Minneapolis Center
04:27PM 44.1467 -87.5875 280° West 347 399 15,100 -1,080 Descending Minneapolis Center
04:28PM 44.1633 -87.7178 280° West 343 395 14,000 -1,080 Descending Minneapolis Center
04:29PM 44.1947 -87.8414 290° West 340 391 12,900 -1,320 Descending Minneapolis Center
04:30PM 44.2264 -87.9608 290° West 332 382 11,300 -1,380 Descending Minneapolis Center
04:31PM 44.2525 -88.0636 290° West 288 331 10,100 -1,740 Descending Minneapolis Center
04:32PM 44.2811 -88.1706 291° West 258 297 7,800 -2,040 Descending Minneapolis Center
04:33PM 44.3042 -88.2608 290° West 250 288 5,900 -1,920 Descending Minneapolis Center
04:34PM 44.3269 -88.3475 290° West 244 281 3,900 -1,980 Descending Minneapolis Center